Station: Cummins Airport

  Atmospheric Gas Attenuation - ITU Rec 676-11   --------------- db/100km ---------------
Date Time Temp RH % AH g/m3 Dew Point Wind Direction Speed kph Gust kph Barometer mB Rainfall Since 9am 24GHz 47GHz 76GHz 122GHz 134GHz 241GHz
15 02:00 11.4 95 9.75 10.6 13 13 1019.2 2.8 22.2 28.8 46.2 121.4 118.1 407.0
15 01:50 11.6 95 9.88 10.8 11 13 1019.3 2.8 22.4 29.0 46.6 122.6 119.7 412.5
15 01:40 11.9 95 10.06 11.1 13 13 1019.5 2.8 22.8 29.2 47.3 124.3 121.8 420.0
15 01:30 12.1 95 10.19 11.3 11 11 1019.5 2.8 23.1 29.4 47.7 125.4 123.3 425.4
15 01:20 12.3 95 10.32 11.5 11 13 1019.6 2.8 23.4 29.5 48.2 126.7 124.9 430.9
15 01:10 12.2 95 10.25 11.4 15 15 1019.6 2.8 23.2 29.4 47.9 126.0 124.0 427.9
15 01:00 12.3 95 10.32 11.5 15 20 1019.9 2.8 23.4 29.5 48.2 126.7 124.9 431.0
15 00:50 12.3 95 10.32 11.5 13 15 1019.7 2.8 23.4 29.5 48.2 126.7 124.9 430.9
15 00:40 12.4 95 10.38 11.6 13 13 1019.6 2.8 23.5 29.6 48.4 127.2 125.6 433.3
15 00:30 12.3 95 10.32 11.5 11 15 1019.5 2.8 23.4 29.5 48.2 126.6 124.9 430.8
15 00:20 12.4 95 10.38 11.6 13 13 1019.4 2.8 23.5 29.6 48.4 127.2 125.6 433.2
15 00:10 12.4 95 10.38 11.6 11 13 1019.5 2.8 23.5 29.6 48.4 127.2 125.6 433.3
15 00:00 12.5 96 10.56 11.9 13 15 1019.5 2.8 23.9 29.9 49.1 129.1 128.0 441.8
14 23:50 12.3 95 10.32 11.5 13 13 1019.5 2.8 23.4 29.5 48.2 126.6 124.9 430.8
14 23:40 12.5 96 10.56 11.9 13 13 1019.5 2.8 23.9 29.9 49.1 129.1 128.0 441.8
14 23:30 12.5 96 10.56 11.9 13 17 1019.2 2.8 23.9 29.9 49.1 129.1 128.0 441.7
14 23:20 12.5 96 10.56 11.9 15 17 1019.1 2.8 23.9 29.9 49.1 129.1 128.0 441.7
14 23:10 12.5 96 10.56 11.9 15 17 1019.1 2.8 23.9 29.9 49.1 129.1 128.0 441.7
14 23:00 12.5 95 10.45 11.7 15 17 1019 2.8 23.6 29.7 48.6 127.8 126.4 436.1
14 22:50 12.5 95 10.45 11.7 19 20 1018.9 2.8 23.6 29.7 48.6 127.8 126.4 436.0
14 22:40 12.5 95 10.45 11.7 19 20 1018.7 2.8 23.6 29.6 48.6 127.7 126.3 436.0
14 22:30 12.5 95 10.45 11.7 17 19 1018.7 2.8 23.6 29.6 48.6 127.7 126.3 436.0
14 22:20 12.6 95 10.51 11.8 15 19 1018.7 2.8 23.7 29.7 48.8 128.3 127.0 438.4
14 22:10 12.6 95 10.51 11.8 15 17 1018.7 2.8 23.7 29.7 48.8 128.3 127.0 438.4
14 22:00 12.7 94 10.46 11.8 17 19 1018.6 2.8 23.6 29.6 48.5 127.5 126.1 435.3
14 21:50 12.8 94 10.53 11.9 22 28 1018.6 2.8 23.8 29.7 48.7 128.2 127.0 438.3
14 21:40 12.7 93 10.35 11.6 19 20 1018.7 2.8 23.4 29.4 48.0 126.2 124.6 429.8
14 21:30 12.6 93 10.29 11.5 19 24 1018.7 2.8 23.3 29.3 47.8 125.7 123.9 427.4
14 21:20 12.6 94 10.4 11.7 19 24 1018.6 2.8 23.5 29.5 48.3 127.0 125.4 432.9
14 21:10 12.6 93 10.29 11.5 17 19 1018.5 2.8 23.3 29.3 47.8 125.7 123.9 427.3
14 21:00 12.6 94 10.4 11.7 20 24 1018.5 2.8 23.5 29.5 48.3 127.0 125.4 432.8
14 20:50 12.5 94 10.34 11.6 19 20 1018.4 2.8 23.4 29.4 48.1 126.4 124.7 430.3
14 20:40 12.2 94 10.14 11.3 15 17 1018.3 2.8 23.0 29.2 47.4 124.6 122.3 421.9
14 20:30 12 94 10.02 11.1 17 19 1018.1 2.8 22.7 29.0 47.0 123.5 120.9 417.0
14 20:20 12.1 94 10.08 11.2 19 20 1018 2.8 22.8 29.1 47.2 124.0 121.6 419.4
14 20:10 12 94 10.02 11.1 15 17 1018 2.8 22.7 29.0 47.0 123.5 120.9 416.9
14 20:00 12.1 93 9.97 11 13 13 1017.8 2.8 22.6 28.9 46.7 122.7 120.0 413.8
14 19:50 12.2 92 9.93 10.9 13 15 1017.7 2.8 22.5 28.8 46.4 122.1 119.3 411.3
14 19:40 12.3 92 9.99 11 17 19 1017.4 2.8 22.6 28.9 46.6 122.6 120.0 413.6
14 19:30 12.5 92 10.12 11.2 15 17 1017.2 2.8 22.9 29.0 47.0 123.7 121.5 418.9
14 19:20 12.5 91 10.01 11.1 15 17 1017.3 2.8 22.7 28.8 46.6 122.5 119.9 413.5
14 19:10 12.7 91 10.13 11.3 15 17 1017.1 2.8 22.9 29.0 47.0 123.5 121.3 418.3
14 19:00 12.9 91 10.26 11.5 17 19 1017.1 2.8 23.2 29.1 47.4 124.7 122.8 423.7
14 18:50 12.9 91 10.26 11.5 15 19 1017 2.8 23.2 29.1 47.4 124.7 122.8 423.7
14 18:40 13.1 91 10.38 11.7 15 17 1017 2.8 23.4 29.3 47.8 125.7 124.2 428.5
14 18:30 13.5 90 10.53 11.9 17 20 1016.9 2.8 23.7 29.4 48.2 126.8 125.7 433.7
14 18:20 13.8 89 10.6 12 17 19 1016.8 2.8 23.9 29.4 48.3 127.1 126.1 435.5
14 18:10 13.9 88 10.55 11.9 15 17 1016.8 2.8 23.8 29.3 48.0 126.4 125.3 432.4
14 18:00 14 87 10.49 11.9 17 19 1016.6 2.8 23.6 29.1 47.7 125.5 124.2 428.8
14 17:50 14.2 86 10.5 11.9 19 20 1016.4 2.8 23.6 29.1 47.6 125.3 124.0 428.2
14 17:40 14.1 85 10.32 11.6 19 20 1016.4 2.8 23.3 28.8 46.9 123.4 121.7 419.9
14 17:30 14.1 84 10.19 11.4 20 22 1016.3 2.8 23.0 28.6 46.3 121.9 119.8 413.5
14 17:20 14.2 83 10.14 11.4 20 24 1016.2 2.8 22.9 28.4 46.1 121.1 119.0 410.5
14 17:10 14.4 83 10.26 11.6 20 24 1016 2.8 23.1 28.6 46.4 122.2 120.3 415.2
14 17:00 14.6 82 10.26 11.6 20 24 1015.9 2.8 23.1 28.5 46.3 121.8 120.0 414.1
14 16:50 14.7 81 10.2 11.5 20 24 1015.8 2.8 23.0 28.4 46.0 121.0 119.0 410.6
14 16:40 14.9 81 10.32 11.7 22 28 1015.6 2.8 23.2 28.5 46.4 122.0 120.3 415.3
14 16:30 15.3 78 10.19 11.5 28 32 1015.2 2.8 22.9 28.1 45.6 119.9 117.9 406.8
14 16:20 15.6 80 10.64 12.2 22 30 1015.1 2.8 23.9 28.8 47.3 124.4 123.6 426.8
14 16:10 15.9 77 10.43 11.9 26 30 1015.1 2.8 23.4 28.3 46.2 121.6 120.2 415.1
14 16:00 15.8 77 10.36 11.8 26 33 1015 2.8 23.2 28.3 46.0 121.0 119.4 412.2
14 15:50 15.9 76 10.29 11.7 33 39 1014.8 2.8 23.1 28.1 45.6 120.0 118.3 408.3
14 15:40 16 78 10.63 12.2 30 35 1014.7 2.8 23.8 28.6 47.0 123.6 122.8 424.0
14 15:30 16.5 79 11.09 12.8 24 32 1014.7 2.8 24.8 29.2 48.6 128.0 128.3 443.5
14 15:20 16 79 10.76 12.4 28 30 1014.6 2.8 24.1 28.8 47.5 125.1 124.6 430.3
14 15:10 16.5 76 10.67 12.3 32 35 1014.3 2.8 23.9 28.5 46.8 123.3 122.5 423.1
14 15:00 16.3 78 10.82 12.5 32 35 1014 2.8 24.2 28.8 47.6 125.2 124.8 431.3
14 14:50 16.5 76 10.67 12.3 32 33 1013.8 2.8 23.9 28.5 46.8 123.2 122.4 422.9
14 14:40 16.8 85 12.15 14.3 24 28 1013.8 2.8 27.0 30.9 52.9 139.5 142.6 493.5
14 14:30 16.7 82 11.65 13.6 26 37 1013.8 2.8 26.0 30.1 50.8 133.9 135.7 469.3
14 14:20 17.2 83 12.15 14.3 26 32 1013.6 2.8 27.0 30.8 52.7 138.8 141.9 490.9
14 14:10 16.6 86 12.15 14.2 22 26 1013.7 2.8 27.0 31.0 53.1 139.9 143.0 494.7
14 14:00 16.4 88 12.28 14.4 24 32 1013.9 2.8 27.3 31.3 53.8 141.8 145.3 502.6
14 13:50 16 91 12.4 14.5 24 26 1013.9 2.8 27.6 31.7 54.6 143.9 147.8 511.4
14 13:40 15 90 11.54 13.4 32 37 1013.9 2.8 25.8 30.5 51.5 135.6 137.2 474.3
14 13:30 16.1 85 11.65 13.6 30 37 1013.8 1 26.0 30.3 51.2 135.0 136.8 473.0
14 13:20 17 83 12.01 14.1 35 37 1013.7 0.6 26.7 30.6 52.2 137.5 140.3 485.2
14 13:10 16.9 86 12.37 14.5 26 30 1013.8 0.6 27.5 31.3 53.8 141.9 145.6 503.9
14 13:00 16.1 90 12.34 14.5 22 30 1014 0.6 27.5 31.5 54.3 143.1 146.7 507.7
14 12:50 15.7 89 11.91 13.9 24 28 1014 0.6 26.6 30.9 52.6 138.7 141.3 488.6
14 12:40 15.7 90 12.04 14.1 22 24 1014.3 0.6 26.9 31.2 53.2 140.3 143.2 495.2
14 12:30 15.4 89 11.69 13.6 26 32 1014.3 0.6 26.1 30.6 51.9 136.7 138.7 479.5
14 12:20 15.4 90 11.82 13.8 28 32 1014.4 0.6 26.4 30.9 52.5 138.3 140.6 486.1
14 12:10 16 86 11.72 13.7 30 33 1014.5 0.4 26.1 30.5 51.6 136.0 138.0 477.3
14 12:00 17.6 80 12 14.1 32 41 1014.4 0.2 26.6 30.4 51.8 136.4 139.1 481.2
14 11:50 17.7 79 11.92 14 32 35 1014.6 0.2 26.5 30.3 51.4 135.4 137.8 476.7
14 11:40 17.2 79 11.57 13.5 32 35 1014.7 0.2 25.7 29.8 50.2 132.3 133.8 462.7
14 11:30 17 81 11.72 13.7 33 37 1014.7 0.2 26.1 30.2 51.0 134.3 136.3 471.3
14 11:20 16.6 82 11.58 13.5 33 37 1014.7 0.2 25.8 30.1 50.6 133.4 135.0 466.8
14 11:10 16.6 83 11.72 13.7 26 32 1014.8 0.2 26.1 30.3 51.3 135.0 137.0 473.7
14 11:00 16.8 83 11.87 13.9 28 33 1014.8 0.2 26.4 30.5 51.8 136.4 138.8 479.9
14 10:50 16.2 83 11.45 13.3 22 26 1014.9 0.2 25.6 30.0 50.4 132.6 133.9 462.9
14 10:40 16.4 85 11.86 13.9 22 26 1015.1 0.2 26.4 30.6 52.0 137.0 139.4 482.0
14 10:30 16.1 89 12.2 14.3 19 20 1015.1 0.2 27.2 31.3 53.7 141.6 144.8 501.0
14 10:20 15.8 90 12.11 14.2 19 20 1015 0.2 27.0 31.3 53.5 141.0 144.1 498.4
14 10:10 14.6 91 11.39 13.1 19 22 1015 0.2 25.5 30.4 51.2 134.7 135.9 469.6
14 10:00 14.2 91 11.11 12.8 17 24 1015 0.2 24.9 30.1 50.2 132.1 132.6 458.0
14 09:50 14 92 11.1 12.7 15 17 1015 0.2 24.9 30.1 50.3 132.4 132.8 458.7
14 09:40 13.8 92 10.96 12.5 11 13 1015.1 0 24.6 30.0 49.8 131.1 131.1 452.8
14 09:30 13.7 91 10.78 12.3 19 20 1015 0 24.3 29.7 49.1 129.1 128.7 444.4

Last Refresh: 15-Jun-2024 02:07:56

Bureau of Meteorology